sensor_id;sensor_type;location;lat;lon;timestamp;P1;durP1;ratioP1;P2;durP2;ratioP2
3054;SDS011;1537;52.018;8.542;2023-03-03T00:00:34;23.03;;;14.57;;
3054;SDS011;1537;52.018;8.542;2023-03-03T00:03:59;23.53;;;12.23;;
3054;SDS011;1537;52.018;8.542;2023-03-03T00:07:23;23.70;;;12.97;;
3054;SDS011;1537;52.018;8.542;2023-03-03T00:10:47;22.40;;;13.20;;
3054;SDS011;1537;52.018;8.542;2023-03-03T00:14:16;17.93;;;12.00;;
3054;SDS011;1537;52.018;8.542;2023-03-03T00:17:51;23.57;;;13.60;;
3054;SDS011;1537;52.018;8.542;2023-03-03T00:21:25;23.17;;;13.00;;
3054;SDS011;1537;52.018;8.542;2023-03-03T00:24:51;20.40;;;12.50;;
3054;SDS011;1537;52.018;8.542;2023-03-03T00:28:17;23.53;;;14.00;;
3054;SDS011;1537;52.018;8.542;2023-03-03T00:31:45;25.10;;;14.50;;
3054;SDS011;1537;52.018;8.542;2023-03-03T00:35:22;22.73;;;15.00;;
3054;SDS011;1537;52.018;8.542;2023-03-03T00:38:52;26.90;;;14.40;;
3054;SDS011;1537;52.018;8.542;2023-03-03T00:42:17;17.43;;;12.30;;
3054;SDS011;1537;52.018;8.542;2023-03-03T00:45:42;20.00;;;11.20;;
3054;SDS011;1537;52.018;8.542;2023-03-03T00:49:08;19.10;;;12.40;;
3054;SDS011;1537;52.018;8.542;2023-03-03T00:52:51;25.70;;;13.57;;
3054;SDS011;1537;52.018;8.542;2023-03-03T00:56:25;25.80;;;13.87;;
3054;SDS011;1537;52.018;8.542;2023-03-03T00:59:49;22.93;;;13.37;;
3054;SDS011;1537;52.018;8.542;2023-03-03T01:03:14;18.63;;;10.50;;
3054;SDS011;1537;52.018;8.542;2023-03-03T01:06:40;23.63;;;12.93;;
3054;SDS011;1537;52.018;8.542;2023-03-03T01:10:04;24.43;;;13.03;;
3054;SDS011;1537;52.018;8.542;2023-03-03T01:13:32;23.40;;;11.80;;
3054;SDS011;1537;52.018;8.542;2023-03-03T01:16:59;25.57;;;14.27;;
3054;SDS011;1537;52.018;8.542;2023-03-03T01:20:23;28.57;;;14.97;;
3054;SDS011;1537;52.018;8.542;2023-03-03T01:23:47;27.80;;;14.50;;
3054;SDS011;1537;52.018;8.542;2023-03-03T01:27:11;22.60;;;14.57;;
3054;SDS011;1537;52.018;8.542;2023-03-03T01:30:36;32.77;;;14.70;;
3054;SDS011;1537;52.018;8.542;2023-03-03T01:34:01;28.70;;;14.27;;
3054;SDS011;1537;52.018;8.542;2023-03-03T01:37:28;34.97;;;17.77;;
3054;SDS011;1537;52.018;8.542;2023-03-03T01:40:52;27.20;;;16.80;;
3054;SDS011;1537;52.018;8.542;2023-03-03T01:44:17;34.63;;;17.47;;
3054;SDS011;1537;52.018;8.542;2023-03-03T01:47:43;33.43;;;13.47;;
3054;SDS011;1537;52.018;8.542;2023-03-03T01:51:13;26.00;;;14.87;;
3054;SDS011;1537;52.018;8.542;2023-03-03T01:54:43;48.57;;;19.30;;
3054;SDS011;1537;52.018;8.542;2023-03-03T01:58:11;31.40;;;16.37;;
3054;SDS011;1537;52.018;8.542;2023-03-03T02:01:38;38.37;;;17.37;;
3054;SDS011;1537;52.018;8.542;2023-03-03T02:05:05;30.47;;;13.80;;
3054;SDS011;1537;52.018;8.542;2023-03-03T02:08:36;40.27;;;18.50;;
3054;SDS011;1537;52.018;8.542;2023-03-03T02:12:06;38.13;;;18.87;;
3054;SDS011;1537;52.018;8.542;2023-03-03T02:15:33;38.97;;;18.17;;
3054;SDS011;1537;52.018;8.542;2023-03-03T02:18:58;37.67;;;17.50;;
3054;SDS011;1537;52.018;8.542;2023-03-03T02:22:28;37.77;;;12.97;;
3054;SDS011;1537;52.018;8.542;2023-03-03T02:26:06;33.97;;;15.87;;
3054;SDS011;1537;52.018;8.542;2023-03-03T02:29:31;31.77;;;14.80;;
3054;SDS011;1537;52.018;8.542;2023-03-03T02:32:55;32.23;;;17.17;;
3054;SDS011;1537;52.018;8.542;2023-03-03T02:36:21;32.03;;;15.73;;
3054;SDS011;1537;52.018;8.542;2023-03-03T02:39:48;36.53;;;15.70;;
3054;SDS011;1537;52.018;8.542;2023-03-03T02:43:13;32.43;;;13.90;;
3054;SDS011;1537;52.018;8.542;2023-03-03T02:46:41;36.03;;;15.50;;
3054;SDS011;1537;52.018;8.542;2023-03-03T02:50:07;41.97;;;19.23;;
3054;SDS011;1537;52.018;8.542;2023-03-03T02:53:31;49.50;;;23.23;;
3054;SDS011;1537;52.018;8.542;2023-03-03T02:56:56;56.40;;;24.00;;
3054;SDS011;1537;52.018;8.542;2023-03-03T03:00:22;37.53;;;16.07;;
3054;SDS011;1537;52.018;8.542;2023-03-03T03:03:47;39.50;;;17.50;;
3054;SDS011;1537;52.018;8.542;2023-03-03T03:07:14;37.20;;;16.30;;
3054;SDS011;1537;52.018;8.542;2023-03-03T03:10:38;32.50;;;14.43;;
3054;SDS011;1537;52.018;8.542;2023-03-03T03:14:02;29.20;;;15.83;;
3054;SDS011;1537;52.018;8.542;2023-03-03T03:17:29;39.97;;;17.67;;
3054;SDS011;1537;52.018;8.542;2023-03-03T03:20:54;47.77;;;20.50;;
3054;SDS011;1537;52.018;8.542;2023-03-03T03:24:20;44.87;;;20.20;;
3054;SDS011;1537;52.018;8.542;2023-03-03T03:27:51;57.43;;;21.63;;
3054;SDS011;1537;52.018;8.542;2023-03-03T03:31:16;48.20;;;20.80;;
3054;SDS011;1537;52.018;8.542;2023-03-03T03:34:43;43.50;;;20.50;;
3054;SDS011;1537;52.018;8.542;2023-03-03T03:38:07;44.40;;;19.00;;
3054;SDS011;1537;52.018;8.542;2023-03-03T03:41:32;31.87;;;16.03;;
3054;SDS011;1537;52.018;8.542;2023-03-03T03:44:56;36.87;;;15.50;;
3054;SDS011;1537;52.018;8.542;2023-03-03T03:48:29;27.33;;;13.10;;
3054;SDS011;1537;52.018;8.542;2023-03-03T03:51:56;35.30;;;15.57;;
3054;SDS011;1537;52.018;8.542;2023-03-03T03:55:24;43.93;;;16.43;;
3054;SDS011;1537;52.018;8.542;2023-03-03T03:58:49;28.33;;;13.87;;
3054;SDS011;1537;52.018;8.542;2023-03-03T04:02:13;51.60;;;17.93;;
3054;SDS011;1537;52.018;8.542;2023-03-03T04:05:38;48.83;;;18.60;;
3054;SDS011;1537;52.018;8.542;2023-03-03T04:09:07;41.47;;;15.47;;
3054;SDS011;1537;52.018;8.542;2023-03-03T04:12:31;28.17;;;13.57;;
3054;SDS011;1537;52.018;8.542;2023-03-03T04:16:03;38.60;;;19.23;;
3054;SDS011;1537;52.018;8.542;2023-03-03T04:19:28;41.97;;;15.07;;
3054;SDS011;1537;52.018;8.542;2023-03-03T04:22:52;53.33;;;19.60;;
3054;SDS011;1537;52.018;8.542;2023-03-03T04:26:21;44.30;;;18.80;;
3054;SDS011;1537;52.018;8.542;2023-03-03T04:29:45;49.70;;;19.03;;
3054;SDS011;1537;52.018;8.542;2023-03-03T04:33:10;46.93;;;20.47;;
3054;SDS011;1537;52.018;8.542;2023-03-03T04:36:42;45.53;;;19.03;;
3054;SDS011;1537;52.018;8.542;2023-03-03T04:40:07;48.57;;;21.50;;
3054;SDS011;1537;52.018;8.542;2023-03-03T04:43:34;42.67;;;17.13;;
3054;SDS011;1537;52.018;8.542;2023-03-03T04:46:59;41.37;;;17.80;;
3054;SDS011;1537;52.018;8.542;2023-03-03T04:50:23;49.97;;;20.03;;
3054;SDS011;1537;52.018;8.542;2023-03-03T04:53:49;59.57;;;21.77;;
3054;SDS011;1537;52.018;8.542;2023-03-03T04:57:13;45.97;;;20.90;;
3054;SDS011;1537;52.018;8.542;2023-03-03T05:00:40;47.40;;;20.73;;
3054;SDS011;1537;52.018;8.542;2023-03-03T05:04:04;42.63;;;16.80;;
3054;SDS011;1537;52.018;8.542;2023-03-03T05:07:28;53.30;;;21.07;;
3054;SDS011;1537;52.018;8.542;2023-03-03T05:10:52;60.27;;;19.97;;
3054;SDS011;1537;52.018;8.542;2023-03-03T05:14:17;55.77;;;19.17;;
3054;SDS011;1537;52.018;8.542;2023-03-03T05:17:43;60.23;;;22.27;;
3054;SDS011;1537;52.018;8.542;2023-03-03T05:21:06;54.83;;;21.57;;
3054;SDS011;1537;52.018;8.542;2023-03-03T05:24:30;44.67;;;17.00;;
3054;SDS011;1537;52.018;8.542;2023-03-03T05:27:54;50.37;;;21.37;;
3054;SDS011;1537;52.018;8.542;2023-03-03T05:31:18;54.30;;;22.20;;
3054;SDS011;1537;52.018;8.542;2023-03-03T05:34:44;46.23;;;20.27;;
3054;SDS011;1537;52.018;8.542;2023-03-03T05:38:07;54.67;;;19.80;;
3054;SDS011;1537;52.018;8.542;2023-03-03T05:41:33;61.40;;;23.47;;
3054;SDS011;1537;52.018;8.542;2023-03-03T05:44:58;60.20;;;22.13;;
3054;SDS011;1537;52.018;8.542;2023-03-03T05:48:22;58.27;;;23.57;;
3054;SDS011;1537;52.018;8.542;2023-03-03T05:51:48;52.77;;;22.00;;
3054;SDS011;1537;52.018;8.542;2023-03-03T05:55:11;53.83;;;20.10;;
3054;SDS011;1537;52.018;8.542;2023-03-03T05:58:35;57.97;;;22.90;;
3054;SDS011;1537;52.018;8.542;2023-03-03T06:02:02;48.40;;;17.70;;
3054;SDS011;1537;52.018;8.542;2023-03-03T06:05:26;50.40;;;19.00;;
3054;SDS011;1537;52.018;8.542;2023-03-03T06:08:52;53.23;;;20.53;;
3054;SDS011;1537;52.018;8.542;2023-03-03T06:12:18;46.50;;;17.37;;
3054;SDS011;1537;52.018;8.542;2023-03-03T06:15:43;62.53;;;22.23;;
3054;SDS011;1537;52.018;8.542;2023-03-03T06:19:07;53.63;;;21.10;;
3054;SDS011;1537;52.018;8.542;2023-03-03T06:22:31;51.27;;;20.27;;
3054;SDS011;1537;52.018;8.542;2023-03-03T06:25:57;45.93;;;16.73;;
3054;SDS011;1537;52.018;8.542;2023-03-03T06:29:20;42.87;;;16.80;;
3054;SDS011;1537;52.018;8.542;2023-03-03T06:32:44;49.70;;;18.70;;
3054;SDS011;1537;52.018;8.542;2023-03-03T06:36:08;49.57;;;21.07;;
3054;SDS011;1537;52.018;8.542;2023-03-03T06:39:33;36.33;;;13.87;;
3054;SDS011;1537;52.018;8.542;2023-03-03T06:42:59;44.87;;;15.80;;
3054;SDS011;1537;52.018;8.542;2023-03-03T06:46:24;43.07;;;12.17;;
3054;SDS011;1537;52.018;8.542;2023-03-03T06:49:47;55.03;;;22.03;;
3054;SDS011;1537;52.018;8.542;2023-03-03T06:53:12;50.00;;;17.33;;
3054;SDS011;1537;52.018;8.542;2023-03-03T06:56:38;35.00;;;14.27;;
3054;SDS011;1537;52.018;8.542;2023-03-03T07:00:11;58.13;;;21.83;;
3054;SDS011;1537;52.018;8.542;2023-03-03T07:03:42;58.07;;;22.20;;
3054;SDS011;1537;52.018;8.542;2023-03-03T07:07:10;72.70;;;24.50;;
3054;SDS011;1537;52.018;8.542;2023-03-03T07:10:39;56.33;;;21.20;;
3054;SDS011;1537;52.018;8.542;2023-03-03T07:14:04;56.97;;;23.03;;
3054;SDS011;1537;52.018;8.542;2023-03-03T07:17:38;38.97;;;15.27;;
3054;SDS011;1537;52.018;8.542;2023-03-03T07:21:07;40.77;;;14.37;;
3054;SDS011;1537;52.018;8.542;2023-03-03T07:24:39;46.33;;;19.33;;
3054;SDS011;1537;52.018;8.542;2023-03-03T07:28:10;60.53;;;23.80;;
3054;SDS011;1537;52.018;8.542;2023-03-03T07:31:39;66.10;;;22.00;;
3054;SDS011;1537;52.018;8.542;2023-03-03T07:35:17;47.13;;;19.57;;
3054;SDS011;1537;52.018;8.542;2023-03-03T07:39:20;61.53;;;22.90;;
3054;SDS011;1537;52.018;8.542;2023-03-03T07:42:51;37.33;;;17.57;;
3054;SDS011;1537;52.018;8.542;2023-03-03T07:46:28;68.47;;;26.30;;
3054;SDS011;1537;52.018;8.542;2023-03-03T07:49:57;61.70;;;23.83;;
3054;SDS011;1537;52.018;8.542;2023-03-03T07:53:28;67.63;;;26.43;;
3054;SDS011;1537;52.018;8.542;2023-03-03T07:57:00;48.57;;;23.10;;
3054;SDS011;1537;52.018;8.542;2023-03-03T08:04:38;50.30;;;20.40;;
3054;SDS011;1537;52.018;8.542;2023-03-03T08:08:13;48.30;;;21.60;;
3054;SDS011;1537;52.018;8.542;2023-03-03T08:11:47;58.97;;;23.57;;
3054;SDS011;1537;52.018;8.542;2023-03-03T08:15:20;53.80;;;20.47;;
3054;SDS011;1537;52.018;8.542;2023-03-03T08:18:46;63.03;;;22.20;;
3054;SDS011;1537;52.018;8.542;2023-03-03T08:22:12;46.77;;;20.57;;
3054;SDS011;1537;52.018;8.542;2023-03-03T08:25:40;48.60;;;17.90;;
3054;SDS011;1537;52.018;8.542;2023-03-03T08:29:05;45.80;;;18.63;;
3054;SDS011;1537;52.018;8.542;2023-03-03T08:32:29;45.30;;;18.00;;
3054;SDS011;1537;52.018;8.542;2023-03-03T08:35:55;61.50;;;20.60;;
3054;SDS011;1537;52.018;8.542;2023-03-03T08:39:19;58.37;;;23.20;;
3054;SDS011;1537;52.018;8.542;2023-03-03T08:42:43;51.03;;;24.20;;
3054;SDS011;1537;52.018;8.542;2023-03-03T08:46:10;55.67;;;22.40;;
3054;SDS011;1537;52.018;8.542;2023-03-03T08:49:34;47.50;;;21.27;;
3054;SDS011;1537;52.018;8.542;2023-03-03T08:53:03;54.43;;;22.03;;
3054;SDS011;1537;52.018;8.542;2023-03-03T08:56:27;56.43;;;22.30;;
3054;SDS011;1537;52.018;8.542;2023-03-03T08:59:51;48.90;;;22.40;;
3054;SDS011;1537;52.018;8.542;2023-03-03T09:03:16;48.60;;;19.90;;
3054;SDS011;1537;52.018;8.542;2023-03-03T09:06:40;48.87;;;22.43;;
3054;SDS011;1537;52.018;8.542;2023-03-03T09:10:04;51.20;;;24.10;;
3054;SDS011;1537;52.018;8.542;2023-03-03T09:13:29;55.10;;;23.00;;
3054;SDS011;1537;52.018;8.542;2023-03-03T09:16:53;41.43;;;20.53;;
3054;SDS011;1537;52.018;8.542;2023-03-03T09:20:31;44.33;;;22.00;;
3054;SDS011;1537;52.018;8.542;2023-03-03T09:24:00;47.80;;;21.13;;
3054;SDS011;1537;52.018;8.542;2023-03-03T09:27:25;42.20;;;20.50;;
3054;SDS011;1537;52.018;8.542;2023-03-03T09:30:51;49.27;;;21.60;;
3054;SDS011;1537;52.018;8.542;2023-03-03T09:34:20;44.50;;;22.27;;
3054;SDS011;1537;52.018;8.542;2023-03-03T09:37:46;48.40;;;19.53;;
3054;SDS011;1537;52.018;8.542;2023-03-03T09:41:15;55.47;;;22.43;;
3054;SDS011;1537;52.018;8.542;2023-03-03T09:45:13;40.23;;;21.50;;
3054;SDS011;1537;52.018;8.542;2023-03-03T09:48:51;52.30;;;21.30;;
3054;SDS011;1537;52.018;8.542;2023-03-03T09:52:27;49.63;;;21.40;;
3054;SDS011;1537;52.018;8.542;2023-03-03T09:56:02;49.80;;;21.00;;
3054;SDS011;1537;52.018;8.542;2023-03-03T09:59:39;51.07;;;22.20;;
3054;SDS011;1537;52.018;8.542;2023-03-03T10:03:23;45.27;;;21.40;;
3054;SDS011;1537;52.018;8.542;2023-03-03T10:07:17;46.30;;;20.70;;
3054;SDS011;1537;52.018;8.542;2023-03-03T10:10:50;36.37;;;18.70;;
3054;SDS011;1537;52.018;8.542;2023-03-03T10:14:27;41.53;;;15.67;;
3054;SDS011;1537;52.018;8.542;2023-03-03T10:18:14;39.00;;;18.17;;
3054;SDS011;1537;52.018;8.542;2023-03-03T10:21:48;40.13;;;16.83;;
3054;SDS011;1537;52.018;8.542;2023-03-03T10:25:16;25.87;;;13.70;;
3054;SDS011;1537;52.018;8.542;2023-03-03T10:29:06;34.53;;;15.47;;
3054;SDS011;1537;52.018;8.542;2023-03-03T10:32:47;33.37;;;18.07;;
3054;SDS011;1537;52.018;8.542;2023-03-03T10:36:19;40.83;;;16.47;;
3054;SDS011;1537;52.018;8.542;2023-03-03T10:39:55;39.07;;;17.77;;
3054;SDS011;1537;52.018;8.542;2023-03-03T10:43:38;40.10;;;18.97;;
3054;SDS011;1537;52.018;8.542;2023-03-03T10:47:23;29.13;;;15.37;;
3054;SDS011;1537;52.018;8.542;2023-03-03T10:51:00;40.40;;;17.37;;
3054;SDS011;1537;52.018;8.542;2023-03-03T10:54:36;39.23;;;18.60;;
3054;SDS011;1537;52.018;8.542;2023-03-03T10:58:12;37.97;;;18.50;;
3054;SDS011;1537;52.018;8.542;2023-03-03T11:01:45;30.73;;;13.77;;
3054;SDS011;1537;52.018;8.542;2023-03-03T11:05:17;43.83;;;20.23;;
3054;SDS011;1537;52.018;8.542;2023-03-03T11:08:49;44.00;;;21.53;;
3054;SDS011;1537;52.018;8.542;2023-03-03T11:12:21;45.67;;;20.27;;
3054;SDS011;1537;52.018;8.542;2023-03-03T11:15:54;49.20;;;23.03;;
3054;SDS011;1537;52.018;8.542;2023-03-03T11:19:45;42.50;;;20.33;;
3054;SDS011;1537;52.018;8.542;2023-03-03T11:23:33;38.07;;;18.50;;
3054;SDS011;1537;52.018;8.542;2023-03-03T11:27:18;38.23;;;17.93;;
3054;SDS011;1537;52.018;8.542;2023-03-03T11:30:50;39.23;;;18.70;;
3054;SDS011;1537;52.018;8.542;2023-03-03T11:34:32;39.60;;;17.90;;
3054;SDS011;1537;52.018;8.542;2023-03-03T11:38:18;38.37;;;19.40;;
3054;SDS011;1537;52.018;8.542;2023-03-03T11:42:01;38.57;;;19.30;;
3054;SDS011;1537;52.018;8.542;2023-03-03T11:45:36;42.53;;;19.73;;
3054;SDS011;1537;52.018;8.542;2023-03-03T11:49:04;33.10;;;17.60;;
3054;SDS011;1537;52.018;8.542;2023-03-03T11:52:36;37.03;;;18.30;;
3054;SDS011;1537;52.018;8.542;2023-03-03T11:56:05;39.20;;;17.53;;
3054;SDS011;1537;52.018;8.542;2023-03-03T12:03:39;37.23;;;16.63;;
3054;SDS011;1537;52.018;8.542;2023-03-03T12:07:10;40.30;;;17.70;;
3054;SDS011;1537;52.018;8.542;2023-03-03T12:10:46;42.87;;;20.27;;
3054;SDS011;1537;52.018;8.542;2023-03-03T12:14:22;38.10;;;19.50;;
3054;SDS011;1537;52.018;8.542;2023-03-03T12:18:08;36.47;;;18.90;;
3054;SDS011;1537;52.018;8.542;2023-03-03T12:21:52;32.63;;;15.30;;
3054;SDS011;1537;52.018;8.542;2023-03-03T12:25:29;47.67;;;21.60;;
3054;SDS011;1537;52.018;8.542;2023-03-03T12:29:01;42.30;;;20.27;;
3054;SDS011;1537;52.018;8.542;2023-03-03T12:32:36;44.27;;;21.30;;
3054;SDS011;1537;52.018;8.542;2023-03-03T12:36:14;39.43;;;19.60;;
3054;SDS011;1537;52.018;8.542;2023-03-03T12:39:46;38.50;;;19.80;;
3054;SDS011;1537;52.018;8.542;2023-03-03T12:43:23;39.00;;;15.13;;
3054;SDS011;1537;52.018;8.542;2023-03-03T12:46:58;35.57;;;16.53;;
3054;SDS011;1537;52.018;8.542;2023-03-03T12:50:28;36.67;;;21.00;;
3054;SDS011;1537;52.018;8.542;2023-03-03T12:54:06;33.37;;;16.43;;
3054;SDS011;1537;52.018;8.542;2023-03-03T12:57:47;38.87;;;18.47;;
3054;SDS011;1537;52.018;8.542;2023-03-03T13:01:21;41.00;;;19.60;;
3054;SDS011;1537;52.018;8.542;2023-03-03T13:04:56;39.07;;;20.03;;
3054;SDS011;1537;52.018;8.542;2023-03-03T13:08:36;31.40;;;16.30;;
3054;SDS011;1537;52.018;8.542;2023-03-03T13:12:16;33.80;;;16.30;;
3054;SDS011;1537;52.018;8.542;2023-03-03T13:15:57;32.33;;;16.20;;
3054;SDS011;1537;52.018;8.542;2023-03-03T13:19:28;47.57;;;31.53;;
3054;SDS011;1537;52.018;8.542;2023-03-03T13:22:58;25.67;;;15.63;;
3054;SDS011;1537;52.018;8.542;2023-03-03T13:26:30;25.63;;;14.80;;
3054;SDS011;1537;52.018;8.542;2023-03-03T13:29:59;31.80;;;16.47;;
3054;SDS011;1537;52.018;8.542;2023-03-03T13:33:27;32.27;;;16.90;;
3054;SDS011;1537;52.018;8.542;2023-03-03T13:36:54;27.87;;;15.67;;
3054;SDS011;1537;52.018;8.542;2023-03-03T13:40:21;34.13;;;17.17;;
3054;SDS011;1537;52.018;8.542;2023-03-03T13:43:48;22.80;;;11.77;;
3054;SDS011;1537;52.018;8.542;2023-03-03T13:47:18;26.50;;;14.90;;
3054;SDS011;1537;52.018;8.542;2023-03-03T13:50:47;30.90;;;14.70;;
3054;SDS011;1537;52.018;8.542;2023-03-03T13:54:20;22.40;;;13.27;;
3054;SDS011;1537;52.018;8.542;2023-03-03T13:57:59;23.50;;;11.87;;
3054;SDS011;1537;52.018;8.542;2023-03-03T14:01:25;33.50;;;14.90;;
3054;SDS011;1537;52.018;8.542;2023-03-03T14:04:59;24.60;;;13.03;;
3054;SDS011;1537;52.018;8.542;2023-03-03T14:08:34;25.80;;;11.97;;
3054;SDS011;1537;52.018;8.542;2023-03-03T14:12:16;28.97;;;12.40;;
3054;SDS011;1537;52.018;8.542;2023-03-03T14:15:49;23.63;;;13.53;;
3054;SDS011;1537;52.018;8.542;2023-03-03T14:19:19;30.07;;;13.80;;
3054;SDS011;1537;52.018;8.542;2023-03-03T14:22:49;24.13;;;11.90;;
3054;SDS011;1537;52.018;8.542;2023-03-03T14:26:17;24.80;;;12.67;;
3054;SDS011;1537;52.018;8.542;2023-03-03T14:29:40;25.77;;;14.03;;
3054;SDS011;1537;52.018;8.542;2023-03-03T14:33:15;20.87;;;9.33;;
3054;SDS011;1537;52.018;8.542;2023-03-03T14:36:57;26.80;;;13.53;;
3054;SDS011;1537;52.018;8.542;2023-03-03T14:40:30;18.93;;;8.93;;
3054;SDS011;1537;52.018;8.542;2023-03-03T14:43:57;23.47;;;12.07;;
3054;SDS011;1537;52.018;8.542;2023-03-03T14:47:22;21.43;;;12.77;;
3054;SDS011;1537;52.018;8.542;2023-03-03T14:50:49;24.23;;;13.50;;
3054;SDS011;1537;52.018;8.542;2023-03-03T14:54:15;20.90;;;11.87;;
3054;SDS011;1537;52.018;8.542;2023-03-03T14:57:44;23.47;;;12.83;;
3054;SDS011;1537;52.018;8.542;2023-03-03T15:01:13;22.73;;;12.73;;
3054;SDS011;1537;52.018;8.542;2023-03-03T15:04:43;23.80;;;13.03;;
3054;SDS011;1537;52.018;8.542;2023-03-03T15:08:12;40.63;;;23.53;;
3054;SDS011;1537;52.018;8.542;2023-03-03T15:11:37;23.57;;;12.23;;
3054;SDS011;1537;52.018;8.542;2023-03-03T15:15:03;25.13;;;12.37;;
3054;SDS011;1537;52.018;8.542;2023-03-03T15:18:33;22.80;;;12.80;;
3054;SDS011;1537;52.018;8.542;2023-03-03T15:22:44;21.40;;;10.80;;
3054;SDS011;1537;52.018;8.542;2023-03-03T15:26:11;22.63;;;12.30;;
3054;SDS011;1537;52.018;8.542;2023-03-03T15:29:44;24.00;;;13.30;;
3054;SDS011;1537;52.018;8.542;2023-03-03T15:33:18;22.03;;;11.50;;
3054;SDS011;1537;52.018;8.542;2023-03-03T15:36:54;27.47;;;13.07;;
3054;SDS011;1537;52.018;8.542;2023-03-03T15:40:23;22.00;;;11.57;;
3054;SDS011;1537;52.018;8.542;2023-03-03T15:43:51;23.73;;;12.13;;
3054;SDS011;1537;52.018;8.542;2023-03-03T15:47:34;22.00;;;11.30;;
3054;SDS011;1537;52.018;8.542;2023-03-03T15:51:19;27.13;;;12.53;;
3054;SDS011;1537;52.018;8.542;2023-03-03T15:55:00;26.63;;;14.03;;
3054;SDS011;1537;52.018;8.542;2023-03-03T16:02:46;24.93;;;12.13;;
3054;SDS011;1537;52.018;8.542;2023-03-03T16:06:15;27.30;;;13.43;;
3054;SDS011;1537;52.018;8.542;2023-03-03T16:09:46;24.80;;;13.23;;
3054;SDS011;1537;52.018;8.542;2023-03-03T16:13:26;33.87;;;19.50;;
3054;SDS011;1537;52.018;8.542;2023-03-03T16:17:04;34.07;;;15.57;;
3054;SDS011;1537;52.018;8.542;2023-03-03T16:20:41;21.63;;;13.07;;
3054;SDS011;1537;52.018;8.542;2023-03-03T16:24:16;29.90;;;14.67;;
3054;SDS011;1537;52.018;8.542;2023-03-03T16:27:49;36.07;;;16.63;;
3054;SDS011;1537;52.018;8.542;2023-03-03T16:31:20;29.03;;;14.50;;
3054;SDS011;1537;52.018;8.542;2023-03-03T16:34:53;27.00;;;15.33;;
3054;SDS011;1537;52.018;8.542;2023-03-03T16:38:19;28.30;;;15.20;;
3054;SDS011;1537;52.018;8.542;2023-03-03T16:41:50;41.73;;;22.60;;
3054;SDS011;1537;52.018;8.542;2023-03-03T16:45:23;157.27;;;49.43;;
3054;SDS011;1537;52.018;8.542;2023-03-03T16:48:52;108.80;;;40.53;;
3054;SDS011;1537;52.018;8.542;2023-03-03T16:52:23;51.77;;;24.17;;
3054;SDS011;1537;52.018;8.542;2023-03-03T16:55:52;50.23;;;26.07;;
3054;SDS011;1537;52.018;8.542;2023-03-03T16:59:34;40.67;;;22.07;;
3054;SDS011;1537;52.018;8.542;2023-03-03T17:03:20;85.67;;;49.17;;
3054;SDS011;1537;52.018;8.542;2023-03-03T17:06:53;41.87;;;19.40;;
3054;SDS011;1537;52.018;8.542;2023-03-03T17:10:24;35.63;;;18.83;;
3054;SDS011;1537;52.018;8.542;2023-03-03T17:13:53;40.53;;;21.47;;
3054;SDS011;1537;52.018;8.542;2023-03-03T17:17:38;38.90;;;18.97;;
3054;SDS011;1537;52.018;8.542;2023-03-03T17:21:09;36.60;;;20.87;;
3054;SDS011;1537;52.018;8.542;2023-03-03T17:24:44;33.10;;;19.50;;
3054;SDS011;1537;52.018;8.542;2023-03-03T17:28:15;35.77;;;19.50;;
3054;SDS011;1537;52.018;8.542;2023-03-03T17:31:50;42.50;;;19.67;;
3054;SDS011;1537;52.018;8.542;2023-03-03T17:39:22;42.27;;;20.00;;
3054;SDS011;1537;52.018;8.542;2023-03-03T17:43:02;36.83;;;18.07;;
3054;SDS011;1537;52.018;8.542;2023-03-03T17:46:32;31.20;;;18.23;;
3054;SDS011;1537;52.018;8.542;2023-03-03T17:50:04;34.60;;;16.90;;
3054;SDS011;1537;52.018;8.542;2023-03-03T17:53:49;37.53;;;19.17;;
3054;SDS011;1537;52.018;8.542;2023-03-03T17:57:26;42.57;;;19.00;;
3054;SDS011;1537;52.018;8.542;2023-03-03T18:01:05;36.70;;;19.17;;
3054;SDS011;1537;52.018;8.542;2023-03-03T18:04:39;36.90;;;20.77;;
3054;SDS011;1537;52.018;8.542;2023-03-03T18:08:33;38.57;;;20.60;;
3054;SDS011;1537;52.018;8.542;2023-03-03T18:12:13;70.20;;;39.03;;
3054;SDS011;1537;52.018;8.542;2023-03-03T18:15:45;41.97;;;23.53;;
3054;SDS011;1537;52.018;8.542;2023-03-03T18:19:44;52.60;;;28.60;;
3054;SDS011;1537;52.018;8.542;2023-03-03T18:23:30;38.57;;;21.70;;
3054;SDS011;1537;52.018;8.542;2023-03-03T18:27:26;44.30;;;23.80;;
3054;SDS011;1537;52.018;8.542;2023-03-03T18:30:52;45.40;;;20.70;;
3054;SDS011;1537;52.018;8.542;2023-03-03T18:34:26;39.37;;;20.03;;
3054;SDS011;1537;52.018;8.542;2023-03-03T18:37:57;39.00;;;22.43;;
3054;SDS011;1537;52.018;8.542;2023-03-03T18:42:07;38.43;;;18.63;;
3054;SDS011;1537;52.018;8.542;2023-03-03T18:45:47;37.07;;;17.73;;
3054;SDS011;1537;52.018;8.542;2023-03-03T18:49:12;36.90;;;20.40;;
3054;SDS011;1537;52.018;8.542;2023-03-03T18:52:37;46.90;;;26.87;;
3054;SDS011;1537;52.018;8.542;2023-03-03T18:56:40;38.37;;;22.40;;
3054;SDS011;1537;52.018;8.542;2023-03-03T19:00:11;47.10;;;21.63;;
3054;SDS011;1537;52.018;8.542;2023-03-03T19:03:57;43.47;;;26.60;;
3054;SDS011;1537;52.018;8.542;2023-03-03T19:07:31;49.97;;;29.17;;
3054;SDS011;1537;52.018;8.542;2023-03-03T19:11:33;34.57;;;21.90;;
3054;SDS011;1537;52.018;8.542;2023-03-03T19:15:00;40.80;;;21.47;;
3054;SDS011;1537;52.018;8.542;2023-03-03T19:18:23;32.73;;;19.47;;
3054;SDS011;1537;52.018;8.542;2023-03-03T19:21:49;42.20;;;20.87;;
3054;SDS011;1537;52.018;8.542;2023-03-03T19:25:25;37.57;;;21.63;;
3054;SDS011;1537;52.018;8.542;2023-03-03T19:28:55;37.60;;;22.70;;
3054;SDS011;1537;52.018;8.542;2023-03-03T19:32:27;48.03;;;27.10;;
3054;SDS011;1537;52.018;8.542;2023-03-03T19:39:51;39.47;;;21.30;;
3054;SDS011;1537;52.018;8.542;2023-03-03T19:43:25;40.33;;;19.40;;
3054;SDS011;1537;52.018;8.542;2023-03-03T19:46:59;38.07;;;20.60;;
3054;SDS011;1537;52.018;8.542;2023-03-03T19:50:30;32.40;;;19.00;;
3054;SDS011;1537;52.018;8.542;2023-03-03T19:54:04;34.73;;;18.87;;
3054;SDS011;1537;52.018;8.542;2023-03-03T19:57:42;37.60;;;18.37;;
3054;SDS011;1537;52.018;8.542;2023-03-03T20:01:13;36.53;;;20.23;;
3054;SDS011;1537;52.018;8.542;2023-03-03T20:08:30;39.40;;;20.20;;
3054;SDS011;1537;52.018;8.542;2023-03-03T20:12:07;37.07;;;19.90;;
3054;SDS011;1537;52.018;8.542;2023-03-03T20:15:46;50.53;;;24.37;;
3054;SDS011;1537;52.018;8.542;2023-03-03T20:19:17;36.40;;;20.60;;
3054;SDS011;1537;52.018;8.542;2023-03-03T20:22:51;33.13;;;19.60;;
3054;SDS011;1537;52.018;8.542;2023-03-03T20:26:27;37.90;;;20.37;;
3054;SDS011;1537;52.018;8.542;2023-03-03T20:30:03;36.37;;;20.23;;
3054;SDS011;1537;52.018;8.542;2023-03-03T20:33:35;42.53;;;24.20;;
3054;SDS011;1537;52.018;8.542;2023-03-03T20:37:11;45.63;;;23.07;;
3054;SDS011;1537;52.018;8.542;2023-03-03T20:40:42;32.73;;;18.23;;
3054;SDS011;1537;52.018;8.542;2023-03-03T20:44:15;33.97;;;18.10;;
3054;SDS011;1537;52.018;8.542;2023-03-03T20:47:47;32.60;;;18.73;;
3054;SDS011;1537;52.018;8.542;2023-03-03T20:51:20;45.73;;;26.60;;
3054;SDS011;1537;52.018;8.542;2023-03-03T20:54:50;37.03;;;17.73;;
3054;SDS011;1537;52.018;8.542;2023-03-03T20:58:24;35.87;;;19.60;;
3054;SDS011;1537;52.018;8.542;2023-03-03T21:01:57;35.10;;;20.27;;
3054;SDS011;1537;52.018;8.542;2023-03-03T21:05:25;36.30;;;22.20;;
3054;SDS011;1537;52.018;8.542;2023-03-03T21:08:50;39.50;;;20.67;;
3054;SDS011;1537;52.018;8.542;2023-03-03T21:12:24;47.73;;;29.57;;
3054;SDS011;1537;52.018;8.542;2023-03-03T21:15:54;44.20;;;26.73;;
3054;SDS011;1537;52.018;8.542;2023-03-03T21:19:23;61.40;;;42.93;;
3054;SDS011;1537;52.018;8.542;2023-03-03T21:22:48;45.97;;;22.70;;
3054;SDS011;1537;52.018;8.542;2023-03-03T21:26:12;42.53;;;23.20;;
3054;SDS011;1537;52.018;8.542;2023-03-03T21:29:35;41.80;;;23.13;;
3054;SDS011;1537;52.018;8.542;2023-03-03T21:33:00;31.30;;;19.30;;
3054;SDS011;1537;52.018;8.542;2023-03-03T21:36:43;48.73;;;33.80;;